sensor_id;sensor_type;location;lat;lon;timestamp;temperature;humidity
17236;DHT22;8734;59.272;17.780;2022-07-29T00:01:39;11.90;99.90
17236;DHT22;8734;59.272;17.780;2022-07-29T00:04:10;11.80;99.90
17236;DHT22;8734;59.272;17.780;2022-07-29T00:06:39;11.80;99.90
17236;DHT22;8734;59.272;17.780;2022-07-29T00:09:07;11.70;99.90
17236;DHT22;8734;59.272;17.780;2022-07-29T00:11:36;11.70;99.90
17236;DHT22;8734;59.272;17.780;2022-07-29T00:14:04;11.60;99.90
17236;DHT22;8734;59.272;17.780;2022-07-29T00:16:33;11.60;99.90
17236;DHT22;8734;59.272;17.780;2022-07-29T00:19:02;11.50;99.90
17236;DHT22;8734;59.272;17.780;2022-07-29T00:21:32;11.40;99.90
17236;DHT22;8734;59.272;17.780;2022-07-29T00:24:00;11.40;99.90
17236;DHT22;8734;59.272;17.780;2022-07-29T00:26:29;11.40;99.90
17236;DHT22;8734;59.272;17.780;2022-07-29T00:28:59;11.40;99.90
17236;DHT22;8734;59.272;17.780;2022-07-29T00:31:47;11.30;99.90
17236;DHT22;8734;59.272;17.780;2022-07-29T00:34:16;11.30;99.90
17236;DHT22;8734;59.272;17.780;2022-07-29T00:37:03;11.20;99.90
17236;DHT22;8734;59.272;17.780;2022-07-29T00:39:33;11.20;99.90
17236;DHT22;8734;59.272;17.780;2022-07-29T00:42:02;11.10;99.90
17236;DHT22;8734;59.272;17.780;2022-07-29T00:44:32;11.10;99.90
17236;DHT22;8734;59.272;17.780;2022-07-29T00:47:04;11.10;99.90
17236;DHT22;8734;59.272;17.780;2022-07-29T00:49:33;11.00;99.90
17236;DHT22;8734;59.272;17.780;2022-07-29T00:52:03;11.00;99.90
17236;DHT22;8734;59.272;17.780;2022-07-29T00:54:33;10.90;99.90
17236;DHT22;8734;59.272;17.780;2022-07-29T00:57:06;10.90;99.90
17236;DHT22;8734;59.272;17.780;2022-07-29T00:59:34;10.80;99.90
17236;DHT22;8734;59.272;17.780;2022-07-29T01:02:02;10.80;99.90
17236;DHT22;8734;59.272;17.780;2022-07-29T01:04:32;10.80;99.90
17236;DHT22;8734;59.272;17.780;2022-07-29T01:07:02;10.70;99.90
17236;DHT22;8734;59.272;17.780;2022-07-29T01:09:32;10.70;99.90
17236;DHT22;8734;59.272;17.780;2022-07-29T01:12:14;10.70;99.90
17236;DHT22;8734;59.272;17.780;2022-07-29T01:14:43;10.70;99.90
17236;DHT22;8734;59.272;17.780;2022-07-29T01:17:16;10.70;99.90
17236;DHT22;8734;59.272;17.780;2022-07-29T01:19:51;10.70;99.90
17236;DHT22;8734;59.272;17.780;2022-07-29T01:22:42;10.60;99.90
17236;DHT22;8734;59.272;17.780;2022-07-29T01:25:38;10.60;99.90
17236;DHT22;8734;59.272;17.780;2022-07-29T01:28:49;10.50;99.90
17236;DHT22;8734;59.272;17.780;2022-07-29T01:31:25;10.50;99.90
17236;DHT22;8734;59.272;17.780;2022-07-29T01:34:00;10.40;99.90
17236;DHT22;8734;59.272;17.780;2022-07-29T01:36:33;10.40;99.90
17236;DHT22;8734;59.272;17.780;2022-07-29T01:39:08;10.40;99.90
17236;DHT22;8734;59.272;17.780;2022-07-29T01:41:48;10.40;99.90
17236;DHT22;8734;59.272;17.780;2022-07-29T01:44:24;10.30;99.90
17236;DHT22;8734;59.272;17.780;2022-07-29T01:46:58;10.30;99.90
17236;DHT22;8734;59.272;17.780;2022-07-29T01:49:33;10.30;99.90
17236;DHT22;8734;59.272;17.780;2022-07-29T01:52:07;10.30;99.90
17236;DHT22;8734;59.272;17.780;2022-07-29T01:54:39;10.30;99.90
17236;DHT22;8734;59.272;17.780;2022-07-29T01:57:14;10.30;99.90
17236;DHT22;8734;59.272;17.780;2022-07-29T01:59:47;10.20;99.90
17236;DHT22;8734;59.272;17.780;2022-07-29T02:02:17;10.20;99.90
17236;DHT22;8734;59.272;17.780;2022-07-29T02:04:48;10.20;99.90
17236;DHT22;8734;59.272;17.780;2022-07-29T02:07:20;10.10;99.90
17236;DHT22;8734;59.272;17.780;2022-07-29T02:09:50;10.10;99.90
17236;DHT22;8734;59.272;17.780;2022-07-29T02:12:19;10.10;99.90
17236;DHT22;8734;59.272;17.780;2022-07-29T02:14:53;10.00;99.90
17236;DHT22;8734;59.272;17.780;2022-07-29T02:17:25;10.00;99.90
17236;DHT22;8734;59.272;17.780;2022-07-29T02:19:56;10.00;99.90
17236;DHT22;8734;59.272;17.780;2022-07-29T02:22:28;10.00;99.90
17236;DHT22;8734;59.272;17.780;2022-07-29T02:24:58;10.00;99.90
17236;DHT22;8734;59.272;17.780;2022-07-29T02:27:30;10.00;99.90
17236;DHT22;8734;59.272;17.780;2022-07-29T02:30:02;10.00;99.90
17236;DHT22;8734;59.272;17.780;2022-07-29T02:32:32;10.00;99.90
17236;DHT22;8734;59.272;17.780;2022-07-29T02:35:03;10.00;99.90
17236;DHT22;8734;59.272;17.780;2022-07-29T02:37:33;10.00;99.90
17236;DHT22;8734;59.272;17.780;2022-07-29T02:40:02;9.90;99.90
17236;DHT22;8734;59.272;17.780;2022-07-29T02:42:31;9.90;99.90
17236;DHT22;8734;59.272;17.780;2022-07-29T02:45:02;9.90;99.90
17236;DHT22;8734;59.272;17.780;2022-07-29T02:47:36;9.90;99.90
17236;DHT22;8734;59.272;17.780;2022-07-29T02:50:12;9.90;99.90
17236;DHT22;8734;59.272;17.780;2022-07-29T02:52:47;9.80;99.90
17236;DHT22;8734;59.272;17.780;2022-07-29T02:55:25;9.90;99.90
17236;DHT22;8734;59.272;17.780;2022-07-29T02:57:58;9.90;99.90
17236;DHT22;8734;59.272;17.780;2022-07-29T03:00:34;9.90;99.90
17236;DHT22;8734;59.272;17.780;2022-07-29T03:03:08;9.90;99.90
17236;DHT22;8734;59.272;17.780;2022-07-29T03:05:39;9.90;99.90
17236;DHT22;8734;59.272;17.780;2022-07-29T03:08:10;9.90;99.90
17236;DHT22;8734;59.272;17.780;2022-07-29T03:10:43;9.90;99.90
17236;DHT22;8734;59.272;17.780;2022-07-29T03:13:13;9.90;99.90
17236;DHT22;8734;59.272;17.780;2022-07-29T03:15:44;9.90;99.90
17236;DHT22;8734;59.272;17.780;2022-07-29T03:18:13;9.90;99.90
17236;DHT22;8734;59.272;17.780;2022-07-29T03:20:42;9.90;99.90
17236;DHT22;8734;59.272;17.780;2022-07-29T03:23:10;9.90;99.90
17236;DHT22;8734;59.272;17.780;2022-07-29T03:25:39;9.90;99.90
17236;DHT22;8734;59.272;17.780;2022-07-29T03:28:07;9.90;99.90
17236;DHT22;8734;59.272;17.780;2022-07-29T03:30:36;9.90;99.90
17236;DHT22;8734;59.272;17.780;2022-07-29T03:33:05;9.90;99.90
17236;DHT22;8734;59.272;17.780;2022-07-29T03:35:40;10.00;99.90
17236;DHT22;8734;59.272;17.780;2022-07-29T03:38:08;10.00;99.90
17236;DHT22;8734;59.272;17.780;2022-07-29T03:40:53;10.00;99.90
17236;DHT22;8734;59.272;17.780;2022-07-29T03:43:25;10.00;99.90
17236;DHT22;8734;59.272;17.780;2022-07-29T03:45:55;10.10;99.90
17236;DHT22;8734;59.272;17.780;2022-07-29T03:48:26;10.10;99.90
17236;DHT22;8734;59.272;17.780;2022-07-29T03:50:56;10.10;99.90
17236;DHT22;8734;59.272;17.780;2022-07-29T03:53:25;10.20;99.90
17236;DHT22;8734;59.272;17.780;2022-07-29T03:55:56;10.20;99.90
17236;DHT22;8734;59.272;17.780;2022-07-29T03:58:27;10.30;99.90
17236;DHT22;8734;59.272;17.780;2022-07-29T04:00:58;10.30;99.90
17236;DHT22;8734;59.272;17.780;2022-07-29T04:03:28;10.30;99.90
17236;DHT22;8734;59.272;17.780;2022-07-29T04:05:59;10.40;99.90
17236;DHT22;8734;59.272;17.780;2022-07-29T04:08:28;10.40;99.90
17236;DHT22;8734;59.272;17.780;2022-07-29T04:10:56;10.50;99.90
17236;DHT22;8734;59.272;17.780;2022-07-29T04:13:24;10.50;99.90
17236;DHT22;8734;59.272;17.780;2022-07-29T04:15:52;10.60;99.90
17236;DHT22;8734;59.272;17.780;2022-07-29T04:18:21;10.60;99.90
17236;DHT22;8734;59.272;17.780;2022-07-29T04:20:51;10.70;99.90
17236;DHT22;8734;59.272;17.780;2022-07-29T04:23:19;10.70;99.90
17236;DHT22;8734;59.272;17.780;2022-07-29T04:25:48;10.70;99.90
17236;DHT22;8734;59.272;17.780;2022-07-29T04:28:16;10.80;99.90
17236;DHT22;8734;59.272;17.780;2022-07-29T04:30:45;10.80;99.90
17236;DHT22;8734;59.272;17.780;2022-07-29T04:33:13;10.90;99.90
17236;DHT22;8734;59.272;17.780;2022-07-29T04:35:42;11.00;99.90
17236;DHT22;8734;59.272;17.780;2022-07-29T04:38:17;11.20;99.90
17236;DHT22;8734;59.272;17.780;2022-07-29T04:40:46;11.20;99.90
17236;DHT22;8734;59.272;17.780;2022-07-29T04:43:15;11.20;99.90
17236;DHT22;8734;59.272;17.780;2022-07-29T04:45:49;11.40;99.90
17236;DHT22;8734;59.272;17.780;2022-07-29T04:48:18;11.40;99.90
17236;DHT22;8734;59.272;17.780;2022-07-29T04:50:54;11.50;99.90
17236;DHT22;8734;59.272;17.780;2022-07-29T04:53:24;11.60;99.90
17236;DHT22;8734;59.272;17.780;2022-07-29T04:55:53;11.70;99.90
17236;DHT22;8734;59.272;17.780;2022-07-29T04:58:21;11.70;99.90
17236;DHT22;8734;59.272;17.780;2022-07-29T05:00:51;11.80;99.90
17236;DHT22;8734;59.272;17.780;2022-07-29T05:03:19;11.90;99.90
17236;DHT22;8734;59.272;17.780;2022-07-29T05:05:47;12.00;99.90
17236;DHT22;8734;59.272;17.780;2022-07-29T05:08:16;12.10;99.90
17236;DHT22;8734;59.272;17.780;2022-07-29T05:10:48;12.20;99.90
17236;DHT22;8734;59.272;17.780;2022-07-29T05:13:16;12.30;99.90
17236;DHT22;8734;59.272;17.780;2022-07-29T05:15:45;12.30;99.90
17236;DHT22;8734;59.272;17.780;2022-07-29T05:18:13;12.30;99.90
17236;DHT22;8734;59.272;17.780;2022-07-29T05:20:42;12.40;99.90
17236;DHT22;8734;59.272;17.780;2022-07-29T05:23:10;12.50;99.90
17236;DHT22;8734;59.272;17.780;2022-07-29T05:25:39;12.50;99.90
17236;DHT22;8734;59.272;17.780;2022-07-29T05:28:12;12.50;99.90
17236;DHT22;8734;59.272;17.780;2022-07-29T05:30:40;12.70;99.90
17236;DHT22;8734;59.272;17.780;2022-07-29T05:33:09;12.80;99.90
17236;DHT22;8734;59.272;17.780;2022-07-29T05:35:58;12.90;99.90
17236;DHT22;8734;59.272;17.780;2022-07-29T05:38:27;13.00;99.90
17236;DHT22;8734;59.272;17.780;2022-07-29T05:40:57;13.10;99.90
17236;DHT22;8734;59.272;17.780;2022-07-29T05:43:28;13.20;99.90
17236;DHT22;8734;59.272;17.780;2022-07-29T05:45:57;13.30;99.90
17236;DHT22;8734;59.272;17.780;2022-07-29T05:48:25;13.40;99.90
17236;DHT22;8734;59.272;17.780;2022-07-29T05:50:54;13.50;99.90
17236;DHT22;8734;59.272;17.780;2022-07-29T05:53:23;13.60;99.90
17236;DHT22;8734;59.272;17.780;2022-07-29T05:55:51;13.70;99.90
17236;DHT22;8734;59.272;17.780;2022-07-29T05:58:20;13.80;99.90
17236;DHT22;8734;59.272;17.780;2022-07-29T06:00:56;14.00;99.90
17236;DHT22;8734;59.272;17.780;2022-07-29T06:03:26;14.00;99.90
17236;DHT22;8734;59.272;17.780;2022-07-29T06:05:54;14.00;99.90
17236;DHT22;8734;59.272;17.780;2022-07-29T06:08:23;14.20;99.90
17236;DHT22;8734;59.272;17.780;2022-07-29T06:10:51;14.30;99.90
17236;DHT22;8734;59.272;17.780;2022-07-29T06:13:20;14.40;99.90
17236;DHT22;8734;59.272;17.780;2022-07-29T06:15:48;14.60;99.90
17236;DHT22;8734;59.272;17.780;2022-07-29T06:18:18;14.80;99.90
17236;DHT22;8734;59.272;17.780;2022-07-29T06:20:47;15.00;99.90
17236;DHT22;8734;59.272;17.780;2022-07-29T06:23:16;15.10;99.90
17236;DHT22;8734;59.272;17.780;2022-07-29T06:25:44;15.20;99.90
17236;DHT22;8734;59.272;17.780;2022-07-29T06:28:12;15.30;99.90
17236;DHT22;8734;59.272;17.780;2022-07-29T06:30:41;15.40;99.90
17236;DHT22;8734;59.272;17.780;2022-07-29T06:33:17;15.70;99.90
17236;DHT22;8734;59.272;17.780;2022-07-29T06:35:48;15.90;99.90
17236;DHT22;8734;59.272;17.780;2022-07-29T06:38:21;16.00;99.90
17236;DHT22;8734;59.272;17.780;2022-07-29T06:41:00;16.30;99.90
17236;DHT22;8734;59.272;17.780;2022-07-29T06:43:30;16.40;99.90
17236;DHT22;8734;59.272;17.780;2022-07-29T06:46:02;16.50;99.90
17236;DHT22;8734;59.272;17.780;2022-07-29T06:48:33;16.50;99.90
17236;DHT22;8734;59.272;17.780;2022-07-29T06:51:02;16.50;99.90
17236;DHT22;8734;59.272;17.780;2022-07-29T06:53:32;16.50;99.90
17236;DHT22;8734;59.272;17.780;2022-07-29T06:56:01;16.70;99.90
17236;DHT22;8734;59.272;17.780;2022-07-29T06:58:30;16.80;99.90
17236;DHT22;8734;59.272;17.780;2022-07-29T07:01:01;17.00;99.90
17236;DHT22;8734;59.272;17.780;2022-07-29T07:03:32;17.10;99.90
17236;DHT22;8734;59.272;17.780;2022-07-29T07:06:00;17.30;99.90
17236;DHT22;8734;59.272;17.780;2022-07-29T07:08:28;17.70;99.90
17236;DHT22;8734;59.272;17.780;2022-07-29T07:10:57;17.90;99.90
17236;DHT22;8734;59.272;17.780;2022-07-29T07:13:25;18.00;99.90
17236;DHT22;8734;59.272;17.780;2022-07-29T07:15:54;17.90;99.90
17236;DHT22;8734;59.272;17.780;2022-07-29T07:18:23;18.00;99.90
17236;DHT22;8734;59.272;17.780;2022-07-29T07:20:53;18.10;99.90
17236;DHT22;8734;59.272;17.780;2022-07-29T07:23:21;18.30;99.90
17236;DHT22;8734;59.272;17.780;2022-07-29T07:25:50;18.40;99.90
17236;DHT22;8734;59.272;17.780;2022-07-29T07:28:18;18.60;99.90
17236;DHT22;8734;59.272;17.780;2022-07-29T07:30:51;18.80;99.90
17236;DHT22;8734;59.272;17.780;2022-07-29T07:33:19;19.00;99.90
17236;DHT22;8734;59.272;17.780;2022-07-29T07:35:49;19.30;99.90
17236;DHT22;8734;59.272;17.780;2022-07-29T07:38:18;19.70;99.90
17236;DHT22;8734;59.272;17.780;2022-07-29T07:40:51;20.00;99.90
17236;DHT22;8734;59.272;17.780;2022-07-29T07:43:19;20.40;99.90
17236;DHT22;8734;59.272;17.780;2022-07-29T07:45:52;20.70;99.90
17236;DHT22;8734;59.272;17.780;2022-07-29T07:48:21;21.00;99.90
17236;DHT22;8734;59.272;17.780;2022-07-29T07:50:49;21.10;99.90
17236;DHT22;8734;59.272;17.780;2022-07-29T07:53:19;21.40;99.90
17236;DHT22;8734;59.272;17.780;2022-07-29T07:55:54;21.60;99.90
17236;DHT22;8734;59.272;17.780;2022-07-29T07:58:37;21.70;99.90
17236;DHT22;8734;59.272;17.780;2022-07-29T08:01:06;22.20;99.90
17236;DHT22;8734;59.272;17.780;2022-07-29T08:03:35;22.40;99.90
17236;DHT22;8734;59.272;17.780;2022-07-29T08:06:04;22.20;99.90
17236;DHT22;8734;59.272;17.780;2022-07-29T08:08:33;22.40;99.90
17236;DHT22;8734;59.272;17.780;2022-07-29T08:11:02;22.70;99.90
17236;DHT22;8734;59.272;17.780;2022-07-29T08:13:36;22.90;99.90
17236;DHT22;8734;59.272;17.780;2022-07-29T08:16:06;23.10;99.90
17236;DHT22;8734;59.272;17.780;2022-07-29T08:18:41;23.30;99.90
17236;DHT22;8734;59.272;17.780;2022-07-29T08:21:10;23.60;99.90
17236;DHT22;8734;59.272;17.780;2022-07-29T08:23:42;23.70;99.90
17236;DHT22;8734;59.272;17.780;2022-07-29T08:26:25;24.00;99.90
17236;DHT22;8734;59.272;17.780;2022-07-29T08:28:54;24.20;99.90
17236;DHT22;8734;59.272;17.780;2022-07-29T08:31:22;24.50;99.90
17236;DHT22;8734;59.272;17.780;2022-07-29T08:33:52;24.60;99.90
17236;DHT22;8734;59.272;17.780;2022-07-29T08:36:23;24.50;99.90
17236;DHT22;8734;59.272;17.780;2022-07-29T08:38:53;24.80;99.90
17236;DHT22;8734;59.272;17.780;2022-07-29T08:41:22;25.00;99.90
17236;DHT22;8734;59.272;17.780;2022-07-29T08:43:51;25.00;99.90
17236;DHT22;8734;59.272;17.780;2022-07-29T08:46:21;25.00;99.90
17236;DHT22;8734;59.272;17.780;2022-07-29T08:48:55;25.20;99.90
17236;DHT22;8734;59.272;17.780;2022-07-29T08:51:25;25.40;99.90
17236;DHT22;8734;59.272;17.780;2022-07-29T08:53:56;25.10;99.90
17236;DHT22;8734;59.272;17.780;2022-07-29T08:56:25;25.20;99.90
17236;DHT22;8734;59.272;17.780;2022-07-29T08:58:55;24.90;99.90
17236;DHT22;8734;59.272;17.780;2022-07-29T09:01:27;25.20;99.90
17236;DHT22;8734;59.272;17.780;2022-07-29T09:04:04;25.60;99.90
17236;DHT22;8734;59.272;17.780;2022-07-29T09:06:37;25.40;99.90
17236;DHT22;8734;59.272;17.780;2022-07-29T09:09:07;25.90;99.90
17236;DHT22;8734;59.272;17.780;2022-07-29T09:11:36;25.40;99.90
17236;DHT22;8734;59.272;17.780;2022-07-29T09:14:06;25.40;99.90
17236;DHT22;8734;59.272;17.780;2022-07-29T09:16:49;25.20;99.90
17236;DHT22;8734;59.272;17.780;2022-07-29T09:19:25;25.40;99.90
17236;DHT22;8734;59.272;17.780;2022-07-29T09:21:55;25.60;99.90
17236;DHT22;8734;59.272;17.780;2022-07-29T09:24:42;25.20;99.40
17236;DHT22;8734;59.272;17.780;2022-07-29T09:27:18;25.20;99.90
17236;DHT22;8734;59.272;17.780;2022-07-29T09:29:54;25.20;99.90
17236;DHT22;8734;59.272;17.780;2022-07-29T09:32:25;25.30;99.90
17236;DHT22;8734;59.272;17.780;2022-07-29T09:35:18;25.60;99.90
17236;DHT22;8734;59.272;17.780;2022-07-29T09:38:10;25.90;99.90
17236;DHT22;8734;59.272;17.780;2022-07-29T09:40:40;26.20;99.00
17236;DHT22;8734;59.272;17.780;2022-07-29T09:43:13;26.60;99.90
17236;DHT22;8734;59.272;17.780;2022-07-29T09:45:41;26.60;96.50
17236;DHT22;8734;59.272;17.780;2022-07-29T09:48:17;26.80;95.00
17236;DHT22;8734;59.272;17.780;2022-07-29T09:50:52;27.00;94.20
17236;DHT22;8734;59.272;17.780;2022-07-29T09:53:32;27.00;92.70
17236;DHT22;8734;59.272;17.780;2022-07-29T09:56:02;26.80;92.50
17236;DHT22;8734;59.272;17.780;2022-07-29T09:58:31;26.60;92.80
17236;DHT22;8734;59.272;17.780;2022-07-29T10:01:01;26.90;96.60
17236;DHT22;8734;59.272;17.780;2022-07-29T10:03:31;26.70;93.80
17236;DHT22;8734;59.272;17.780;2022-07-29T10:06:06;25.90;93.50
17236;DHT22;8734;59.272;17.780;2022-07-29T10:08:36;24.80;95.30
17236;DHT22;8734;59.272;17.780;2022-07-29T10:11:13;24.50;95.80
17236;DHT22;8734;59.272;17.780;2022-07-29T10:13:43;24.90;96.90
17236;DHT22;8734;59.272;17.780;2022-07-29T10:16:13;25.40;95.70
17236;DHT22;8734;59.272;17.780;2022-07-29T10:18:42;25.20;94.00
17236;DHT22;8734;59.272;17.780;2022-07-29T10:21:11;24.50;96.10
17236;DHT22;8734;59.272;17.780;2022-07-29T10:24:01;24.10;95.70
17236;DHT22;8734;59.272;17.780;2022-07-29T10:26:31;24.40;96.30
17236;DHT22;8734;59.272;17.780;2022-07-29T10:29:00;24.70;96.20
17236;DHT22;8734;59.272;17.780;2022-07-29T10:31:36;24.40;96.30
17236;DHT22;8734;59.272;17.780;2022-07-29T10:34:13;24.10;97.10
17236;DHT22;8734;59.272;17.780;2022-07-29T10:36:53;23.50;96.90
17236;DHT22;8734;59.272;17.780;2022-07-29T10:39:36;23.50;97.80
17236;DHT22;8734;59.272;17.780;2022-07-29T10:42:18;23.80;97.20
17236;DHT22;8734;59.272;17.780;2022-07-29T10:45:02;24.40;96.90
17236;DHT22;8734;59.272;17.780;2022-07-29T10:47:32;25.10;95.70
17236;DHT22;8734;59.272;17.780;2022-07-29T10:50:02;24.80;95.30
17236;DHT22;8734;59.272;17.780;2022-07-29T10:52:53;25.00;95.90
17236;DHT22;8734;59.272;17.780;2022-07-29T10:55:33;24.90;95.70
17236;DHT22;8734;59.272;17.780;2022-07-29T10:58:18;24.20;96.70
17236;DHT22;8734;59.272;17.780;2022-07-29T11:00:51;23.80;95.70
17236;DHT22;8734;59.272;17.780;2022-07-29T11:03:45;24.10;95.40
17236;DHT22;8734;59.272;17.780;2022-07-29T11:06:17;24.60;94.70
17236;DHT22;8734;59.272;17.780;2022-07-29T11:09:17;24.90;94.00
17236;DHT22;8734;59.272;17.780;2022-07-29T11:12:01;24.80;96.90
17236;DHT22;8734;59.272;17.780;2022-07-29T11:14:56;25.00;94.80
17236;DHT22;8734;59.272;17.780;2022-07-29T11:17:26;24.80;95.30
17236;DHT22;8734;59.272;17.780;2022-07-29T11:20:35;24.80;95.30
17236;DHT22;8734;59.272;17.780;2022-07-29T11:23:21;25.40;94.90
17236;DHT22;8734;59.272;17.780;2022-07-29T11:26:18;25.80;94.00
17236;DHT22;8734;59.272;17.780;2022-07-29T11:28:54;26.20;93.00
17236;DHT22;8734;59.272;17.780;2022-07-29T11:31:34;26.40;91.80
17236;DHT22;8734;59.272;17.780;2022-07-29T11:34:20;25.90;91.30
17236;DHT22;8734;59.272;17.780;2022-07-29T11:37:20;25.50;91.10
17236;DHT22;8734;59.272;17.780;2022-07-29T11:40:14;25.00;91.20
17236;DHT22;8734;59.272;17.780;2022-07-29T11:42:50;25.00;91.10
17236;DHT22;8734;59.272;17.780;2022-07-29T11:48:16;25.70;90.20
17236;DHT22;8734;59.272;17.780;2022-07-29T11:50:56;25.70;87.50
17236;DHT22;8734;59.272;17.780;2022-07-29T11:53:25;25.20;89.40
17236;DHT22;8734;59.272;17.780;2022-07-29T11:56:14;25.20;89.60
17236;DHT22;8734;59.272;17.780;2022-07-29T11:59:02;25.70;86.60
17236;DHT22;8734;59.272;17.780;2022-07-29T12:01:34;25.90;84.40
17236;DHT22;8734;59.272;17.780;2022-07-29T12:04:05;26.10;84.50
17236;DHT22;8734;59.272;17.780;2022-07-29T12:06:34;26.20;82.90
17236;DHT22;8734;59.272;17.780;2022-07-29T12:09:07;26.00;80.70
17236;DHT22;8734;59.272;17.780;2022-07-29T12:11:40;25.90;80.80
17236;DHT22;8734;59.272;17.780;2022-07-29T12:14:25;25.70;83.50
17236;DHT22;8734;59.272;17.780;2022-07-29T12:16:54;25.60;81.00
17236;DHT22;8734;59.272;17.780;2022-07-29T12:19:24;25.70;90.10
17236;DHT22;8734;59.272;17.780;2022-07-29T12:21:54;26.00;80.80
17236;DHT22;8734;59.272;17.780;2022-07-29T12:24:25;26.10;89.90
17236;DHT22;8734;59.272;17.780;2022-07-29T12:26:56;26.20;78.80
17236;DHT22;8734;59.272;17.780;2022-07-29T12:29:25;26.10;79.70
17236;DHT22;8734;59.272;17.780;2022-07-29T12:32:02;26.20;78.10
17236;DHT22;8734;59.272;17.780;2022-07-29T12:34:33;26.00;85.80
17236;DHT22;8734;59.272;17.780;2022-07-29T12:37:02;25.90;79.90
17236;DHT22;8734;59.272;17.780;2022-07-29T12:39:32;25.90;84.00
17236;DHT22;8734;59.272;17.780;2022-07-29T12:42:11;26.10;79.00
17236;DHT22;8734;59.272;17.780;2022-07-29T12:44:45;25.80;77.70
17236;DHT22;8734;59.272;17.780;2022-07-29T12:47:14;25.70;80.40
17236;DHT22;8734;59.272;17.780;2022-07-29T12:49:45;25.70;79.30
17236;DHT22;8734;59.272;17.780;2022-07-29T12:52:27;25.40;78.70
17236;DHT22;8734;59.272;17.780;2022-07-29T12:54:56;25.20;81.20
17236;DHT22;8734;59.272;17.780;2022-07-29T12:57:25;25.20;80.40
17236;DHT22;8734;59.272;17.780;2022-07-29T13:00:14;25.20;77.60
17236;DHT22;8734;59.272;17.780;2022-07-29T13:02:43;25.30;78.00
17236;DHT22;8734;59.272;17.780;2022-07-29T13:05:13;25.20;77.80
17236;DHT22;8734;59.272;17.780;2022-07-29T13:07:41;25.40;78.10
17236;DHT22;8734;59.272;17.780;2022-07-29T13:10:23;25.50;76.90
17236;DHT22;8734;59.272;17.780;2022-07-29T13:13:05;25.20;79.00
17236;DHT22;8734;59.272;17.780;2022-07-29T13:15:35;25.00;79.40
17236;DHT22;8734;59.272;17.780;2022-07-29T13:18:04;24.90;81.20
17236;DHT22;8734;59.272;17.780;2022-07-29T13:20:35;24.90;78.10
17236;DHT22;8734;59.272;17.780;2022-07-29T13:23:04;24.60;79.20
17236;DHT22;8734;59.272;17.780;2022-07-29T13:25:32;24.50;80.60
17236;DHT22;8734;59.272;17.780;2022-07-29T13:28:01;24.50;84.90
17236;DHT22;8734;59.272;17.780;2022-07-29T13:30:29;24.60;81.20
17236;DHT22;8734;59.272;17.780;2022-07-29T13:32:58;24.60;78.90
17236;DHT22;8734;59.272;17.780;2022-07-29T13:35:26;24.60;78.80
17236;DHT22;8734;59.272;17.780;2022-07-29T13:37:58;24.50;82.30
17236;DHT22;8734;59.272;17.780;2022-07-29T13:40:26;24.60;79.90
17236;DHT22;8734;59.272;17.780;2022-07-29T13:42:56;24.40;82.00
17236;DHT22;8734;59.272;17.780;2022-07-29T13:45:24;24.10;81.60
17236;DHT22;8734;59.272;17.780;2022-07-29T13:47:55;24.00;81.60
17236;DHT22;8734;59.272;17.780;2022-07-29T13:50:23;24.00;80.90
17236;DHT22;8734;59.272;17.780;2022-07-29T13:52:53;24.10;82.10
17236;DHT22;8734;59.272;17.780;2022-07-29T13:55:23;24.40;82.60
17236;DHT22;8734;59.272;17.780;2022-07-29T13:57:52;24.80;81.10
17236;DHT22;8734;59.272;17.780;2022-07-29T14:00:20;24.50;81.20
17236;DHT22;8734;59.272;17.780;2022-07-29T14:02:51;24.40;83.10
17236;DHT22;8734;59.272;17.780;2022-07-29T14:05:19;24.20;84.30
17236;DHT22;8734;59.272;17.780;2022-07-29T14:07:48;23.90;83.20
17236;DHT22;8734;59.272;17.780;2022-07-29T14:10:16;24.10;83.30
17236;DHT22;8734;59.272;17.780;2022-07-29T14:12:48;24.00;81.90
17236;DHT22;8734;59.272;17.780;2022-07-29T14:15:16;24.30;79.70
17236;DHT22;8734;59.272;17.780;2022-07-29T14:17:45;24.60;79.90
17236;DHT22;8734;59.272;17.780;2022-07-29T14:20:13;24.60;78.10
17236;DHT22;8734;59.272;17.780;2022-07-29T14:22:43;24.40;78.60
17236;DHT22;8734;59.272;17.780;2022-07-29T14:25:11;24.40;81.60
17236;DHT22;8734;59.272;17.780;2022-07-29T14:27:42;24.70;81.70
17236;DHT22;8734;59.272;17.780;2022-07-29T14:30:12;24.70;81.80
17236;DHT22;8734;59.272;17.780;2022-07-29T14:32:41;24.60;78.60
17236;DHT22;8734;59.272;17.780;2022-07-29T14:35:09;24.50;80.40
17236;DHT22;8734;59.272;17.780;2022-07-29T14:37:38;24.70;82.60
17236;DHT22;8734;59.272;17.780;2022-07-29T14:40:08;24.90;78.60
17236;DHT22;8734;59.272;17.780;2022-07-29T14:42:37;25.10;78.70
17236;DHT22;8734;59.272;17.780;2022-07-29T14:45:07;25.10;79.30
17236;DHT22;8734;59.272;17.780;2022-07-29T14:47:38;25.20;77.20
17236;DHT22;8734;59.272;17.780;2022-07-29T14:50:07;25.20;75.20
17236;DHT22;8734;59.272;17.780;2022-07-29T14:52:36;25.00;81.10
17236;DHT22;8734;59.272;17.780;2022-07-29T14:55:04;25.20;77.60
17236;DHT22;8734;59.272;17.780;2022-07-29T14:57:46;25.10;80.40
17236;DHT22;8734;59.272;17.780;2022-07-29T15:00:16;25.20;76.80
17236;DHT22;8734;59.272;17.780;2022-07-29T15:02:52;25.10;77.50
17236;DHT22;8734;59.272;17.780;2022-07-29T15:05:29;25.20;79.70
17236;DHT22;8734;59.272;17.780;2022-07-29T15:07:58;25.00;78.80
17236;DHT22;8734;59.272;17.780;2022-07-29T15:10:26;24.60;78.30
17236;DHT22;8734;59.272;17.780;2022-07-29T15:12:56;24.10;78.60
17236;DHT22;8734;59.272;17.780;2022-07-29T15:15:25;23.90;80.10
17236;DHT22;8734;59.272;17.780;2022-07-29T15:17:55;23.90;81.70
17236;DHT22;8734;59.272;17.780;2022-07-29T15:20:23;23.70;79.10
17236;DHT22;8734;59.272;17.780;2022-07-29T15:22:54;23.60;81.10
17236;DHT22;8734;59.272;17.780;2022-07-29T15:25:23;23.50;81.80
17236;DHT22;8734;59.272;17.780;2022-07-29T15:27:54;23.50;83.20
17236;DHT22;8734;59.272;17.780;2022-07-29T15:30:29;23.50;83.20
17236;DHT22;8734;59.272;17.780;2022-07-29T15:33:02;23.50;88.20
17236;DHT22;8734;59.272;17.780;2022-07-29T15:35:30;23.70;87.10
17236;DHT22;8734;59.272;17.780;2022-07-29T15:38:06;23.90;82.80
17236;DHT22;8734;59.272;17.780;2022-07-29T15:40:38;24.20;91.20
17236;DHT22;8734;59.272;17.780;2022-07-29T15:43:09;24.10;93.80
17236;DHT22;8734;59.272;17.780;2022-07-29T15:45:40;23.50;95.20
17236;DHT22;8734;59.272;17.780;2022-07-29T15:48:31;23.10;96.30
17236;DHT22;8734;59.272;17.780;2022-07-29T15:50:59;23.20;97.00
17236;DHT22;8734;59.272;17.780;2022-07-29T15:53:28;23.20;96.80
17236;DHT22;8734;59.272;17.780;2022-07-29T15:55:56;23.40;97.70
17236;DHT22;8734;59.272;17.780;2022-07-29T15:58:25;23.40;97.70
17236;DHT22;8734;59.272;17.780;2022-07-29T16:00:53;23.50;97.10
17236;DHT22;8734;59.272;17.780;2022-07-29T16:03:22;23.10;97.80
17236;DHT22;8734;59.272;17.780;2022-07-29T16:05:52;22.80;99.20
17236;DHT22;8734;59.272;17.780;2022-07-29T16:08:20;22.60;99.60